Amarant — CQSF — position and weather

sailwx.info

Track history (hours):
 
Tides and Currents Weather Stations Pressure Air Temp Water Temp Dewpoint Dewpoint Depression Visibility Wind Speed Wind Dir Waves Ship Positions

Amarant

Last reported at 2014-Aug-21 06:33 UTC. Time now 2014-Aug-21 10:18 UTC.
Position N 51°49' E 002°49'.

Length 120 m; draft 6 m.

Type: Tanker. MMSI: 255623000.

Date/timePositionNaut miles runAvg speedWind from/ knotsBaromVisibWave heightAir tempDewpointWater temp
2014-Aug-21 06:33N 51°49' E 002°49'1413.3
2014-Aug-21 05:32N 51°44' E 003°10'1211.7
2014-Aug-21 04:33N 51°36' E 003°23'1212.2
2014-Aug-21 03:33N 51°26' E 003°36'1212.0
2014-Aug-21 02:33N 51°21' E 003°53'1010.4
2014-Aug-21 01:33N 51°23' E 004°10'9 9.1
2014-Aug-21 00:34N 51°17' E 004°20'0 0.0
2014-Aug-20 23:34N 51°17' E 004°20'2 2.1
2014-Aug-20 22:32N 51°15' E 004°22'0 0.0
2014-Aug-20 21:32N 51°15' E 004°22'0 0.0
2014-Aug-20 20:32N 51°15' E 004°22'0 0.0
2014-Aug-20 19:32N 51°15' E 004°22'0 0.0
2014-Aug-20 18:32N 51°15' E 004°22'0 0.0
2014-Aug-20 17:32N 51°15' E 004°22'0 0.0
2014-Aug-20 16:32N 51°15' E 004°22'0 0.0
2014-Aug-20 15:32N 51°15' E 004°22'0 0.0
2014-Aug-20 14:32N 51°15' E 004°22'0 0.0
2014-Aug-20 13:32N 51°15' E 004°22'0 0.0
2014-Aug-20 12:32N 51°15' E 004°22'0 0.0
2014-Aug-20 11:32N 51°15' E 004°22'0 0.0
2014-Aug-20 10:32N 51°15' E 004°22'0 0.0
2014-Aug-20 09:32N 51°15' E 004°22'0 0.0
2014-Aug-20 08:32N 51°15' E 004°22'0 0.0
2014-Aug-20 07:31N 51°15' E 004°22'0 0.0
2014-Aug-20 06:31N 51°15' E 004°22'0 0.0
2014-Aug-20 05:31N 51°15' E 004°22'0 0.0
2014-Aug-20 04:31N 51°15' E 004°22'0 0.0
2014-Aug-20 03:31N 51°15' E 004°22'0 0.0
2014-Aug-20 02:31N 51°15' E 004°22'0 0.0
2014-Aug-20 01:31N 51°15' E 004°22'0 0.0
2014-Aug-20 00:31N 51°15' E 004°22'0 0.0
2014-Aug-19 23:31N 51°15' E 004°22'0 0.0
2014-Aug-19 22:31N 51°15' E 004°22'0 0.0
2014-Aug-19 21:31N 51°15' E 004°22'0 0.0
2014-Aug-19 20:31N 51°15' E 004°22'0 0.0
2014-Aug-19 19:31N 51°15' E 004°22'0 0.0
2014-Aug-19 18:31N 51°15' E 004°22'0 0.0
2014-Aug-19 17:31N 51°15' E 004°22'0 0.0
2014-Aug-19 16:31N 51°15' E 004°22'0 0.0
2014-Aug-19 15:31N 51°15' E 004°22'0 0.0
2014-Aug-19 14:31N 51°15' E 004°22'0 0.0
2014-Aug-19 13:31N 51°15' E 004°22'0 0.0
2014-Aug-19 12:33N 51°15' E 004°22'5 5.1
2014-Aug-19 11:33N 51°20' E 004°18'1 1.4
2014-Aug-19 10:33N 51°21' E 004°17'2 2.1
2014-Aug-19 09:33N 51°21' E 004°14'5 5.1
2014-Aug-19 08:33N 51°22' E 004°06'6 5.7
2014-Aug-19 07:33N 51°24' E 003°57'9 9.2
2014-Aug-19 06:33N 51°24' E 003°43'9 8.6
2014-Aug-19 05:33N 51°28' E 003°31'1110.7
2014-Aug-19 04:33N 51°37' E 003°21'1110.6
2014-Aug-19 03:33N 51°47' E 003°15'8911.1
2014-Aug-18 19:33N 53°07' E 004°19'1111.2
2014-Aug-18 18:33N 53°17' E 004°29'1312.1
2014-Aug-18 17:28N 53°29' E 004°35'1111.9
2014-Aug-18 16:33N 53°40' E 004°41'1211.6
2014-Aug-18 15:32N 53°51' E 004°46'1111.3
2014-Aug-18 14:33N 54°02' E 004°51'1110.5
2014-Aug-18 13:32N 54°12' E 004°59'1010.5
2014-Aug-18 12:33N 54°20' E 005°09'1010.3
2014-Aug-18 11:33N 54°29' E 005°18'1110.5
2014-Aug-18 10:33N 54°38' E 005°26'1310.9
2014-Aug-18 09:22N 54°49' E 005°37'23510.2
2014-Aug-17 10:28N 57°45' E 010°17'1010.7
2014-Aug-17 09:33N 57°48' E 010°34'1111.1
2014-Aug-17 08:33N 57°46' E 010°55'1211.9
2014-Aug-17 07:33N 57°37' E 011°10'1212.5
2014-Aug-17 06:33N 57°28' E 011°26'1713.2
2014-Aug-17 05:18N 57°13' E 011°36'1013.1
2014-Aug-17 04:33N 57°03' E 011°42'1313.0
2014-Aug-17 03:33N 56°51' E 011°50'1312.5
2014-Aug-17 02:33N 56°39' E 011°56'1212.0
2014-Aug-17 01:33N 56°28' E 012°03'1212.2
2014-Aug-17 00:33N 56°18' E 012°17'1212.4
2014-Aug-16 23:33N 56°08' E 012°31'1111.0
2014-Aug-16 22:33N 55°59' E 012°42'1111.5
2014-Aug-16 21:33N 55°48' E 012°42'1111.1
2014-Aug-16 20:33N 55°37' E 012°42'10 9.8
2014-Aug-16 19:33N 55°27' E 012°42'1010.1
2014-Aug-16 18:33N 55°17' E 012°47'1212.0
2014-Aug-16 17:33N 55°16' E 013°07'1212.2
2014-Aug-16 16:33N 55°15' E 013°29'3511.3
2014-Aug-16 13:28N 55°23' E 014°29'1112.4
2014-Aug-16 12:32N 55°30' E 014°45'3012.8
2014-Aug-16 10:12N 55°45' E 015°30'812.9
2014-Aug-16 09:33N 55°49' E 015°43'1312.5
2014-Aug-16 08:33N 55°55' E 016°02'1212.5
2014-Aug-16 07:33N 56°01' E 016°22'3712.1
2014-Aug-16 04:31N 56°33' E 016°56'2612.9
2014-Aug-16 02:29N 56°58' E 017°10'1213.0
2014-Aug-16 01:33N 57°09' E 017°15'1313.1
2014-Aug-16 00:33N 57°22' E 017°21'1313.1
2014-Aug-15 23:33N 57°35' E 017°26'1 0.0
2014-Aug-14 12:33N 57°34' E 017°25'1414.3
2014-Aug-14 11:33N 57°20' E 017°20'1414.2
2014-Aug-14 10:33N 57°06' E 017°14'2814.1
2014-Aug-14 08:33N 56°38' E 017°03'4412.8
2014-Aug-14 05:05N 55°58' E 016°29'713.9
2014-Aug-14 04:33N 55°55' E 016°17'1414.1
2014-Aug-14 03:32N 55°48' E 015°55'1413.9
2014-Aug-14 02:33N 55°41' E 015°34'1414.1
2014-Aug-14 01:33N 55°34' E 015°12'1414.4
2014-Aug-14 00:33N 55°28' E 014°49'1414.3
2014-Aug-13 23:33N 55°18' E 014°30'1413.7
2014-Aug-13 22:33N 55°10' E 014°10'1513.9
2014-Aug-13 21:30N 55°10' E 013°45'1813.8
2014-Aug-13 20:12N 55°10' E 013°14'913.7
2014-Aug-13 19:33N 55°13' E 012°59'1313.0
2014-Aug-13 18:33N 55°19' E 012°38'1312.8
2014-Aug-13 17:33N 55°32' E 012°42'1312.7
2014-Aug-13 16:33N 55°44' E 012°41'1313.3
2014-Aug-13 15:33N 55°58' E 012°38'1212.5
2014-Aug-13 14:34N 56°09' E 012°27'1414.2
2014-Aug-13 13:34N 56°17' E 012°06'1513.4
2014-Aug-13 12:28N 56°31' E 011°59'1313.8
2014-Aug-13 11:33N 56°43' E 011°54'1413.6
2014-Aug-13 10:33N 56°56' E 011°46'1413.7
2014-Aug-13 09:31N 57°09' E 011°37'1414.3
2014-Aug-13 08:33N 57°22' E 011°28'1413.8
2014-Aug-13 07:33N 57°33' E 011°13'1414.4
2014-Aug-13 06:33N 57°43' E 010°53'1313.2
2014-Aug-13 05:33N 57°45' E 010°29'1414.4
2014-Aug-13 04:33N 57°41' E 010°03'16314.2
2014-Aug-12 17:07N 55°40' E 006°44'814.5
2014-Aug-12 16:33N 55°33' E 006°37'10714.3
2014-Aug-12 09:04N 53°60' E 005°06'713.7
2014-Aug-12 08:33N 53°53' E 005°05'1514.5
2014-Aug-12 07:33N 53°40' E 004°54'1414.5
2014-Aug-12 06:33N 53°27' E 004°45'2115.4
2014-Aug-12 05:12N 53°08' E 004°29'1015.3
2014-Aug-12 04:33N 52°60' E 004°20'1515.1
2014-Aug-12 03:33N 52°46' E 004°08'1515.4
2014-Aug-12 02:33N 52°36' E 003°50'5613.1
2014-Aug-11 22:17N 51°43' E 003°17'7 9.3
2014-Aug-11 21:32N 51°37' E 003°22'1111.6
2014-Aug-11 20:33N 51°27' E 003°31'1211.5
2014-Aug-11 19:34N 51°21' E 003°47'1110.8
2014-Aug-11 18:33N 51°22' E 004°04'1111.2
2014-Aug-11 17:34N 51°17' E 004°20'0 0.3
2014-Aug-11 16:33N 51°17' E 004°20'1 0.9
2014-Aug-11 15:32N 51°16' E 004°21'0 0.0
2014-Aug-11 14:32N 51°16' E 004°21'0 0.0
2014-Aug-11 13:32N 51°16' E 004°21'0 0.0
2014-Aug-11 12:32N 51°16' E 004°21'0 0.0
2014-Aug-11 11:32N 51°16' E 004°21'0 0.0
2014-Aug-11 10:32N 51°16' E 004°21'0 0.0
2014-Aug-11 09:32N 51°16' E 004°21'0 0.0
2014-Aug-11 08:32N 51°16' E 004°21'0 0.0
2014-Aug-11 07:31N 51°16' E 004°21'  
Track history (hours):
 
Tides and Currents Weather Stations Pressure Air Temp Water Temp Dewpoint Dewpoint Depression Visibility Wind Speed Wind Dir Waves Ship Positions

Amarant

Last reported at 2014-Aug-21 06:33 UTC. Time now 2014-Aug-21 10:18 UTC.
Position N 51°49' E 002°49'.

Length 120 m; draft 6 m.

Type: Tanker. MMSI: 255623000.

Date/timePositionNaut miles runAvg speedWind from/ knotsBaromVisibWave heightAir tempDewpointWater temp
2014-Aug-21 06:33N 51°49' E 002°49'1413.3
2014-Aug-21 05:32N 51°44' E 003°10'1211.7
2014-Aug-21 04:33N 51°36' E 003°23'1212.2
2014-Aug-21 03:33N 51°26' E 003°36'1212.0
2014-Aug-21 02:33N 51°21' E 003°53'1010.4
2014-Aug-21 01:33N 51°23' E 004°10'9 9.1
2014-Aug-21 00:34N 51°17' E 004°20'0 0.0
2014-Aug-20 23:34N 51°17' E 004°20'2 2.1
2014-Aug-20 22:32N 51°15' E 004°22'0 0.0
2014-Aug-20 21:32N 51°15' E 004°22'0 0.0
2014-Aug-20 20:32N 51°15' E 004°22'0 0.0
2014-Aug-20 19:32N 51°15' E 004°22'0 0.0
2014-Aug-20 18:32N 51°15' E 004°22'0 0.0
2014-Aug-20 17:32N 51°15' E 004°22'0 0.0
2014-Aug-20 16:32N 51°15' E 004°22'0 0.0
2014-Aug-20 15:32N 51°15' E 004°22'0 0.0
2014-Aug-20 14:32N 51°15' E 004°22'0 0.0
2014-Aug-20 13:32N 51°15' E 004°22'0 0.0
2014-Aug-20 12:32N 51°15' E 004°22'0 0.0
2014-Aug-20 11:32N 51°15' E 004°22'0 0.0
2014-Aug-20 10:32N 51°15' E 004°22'0 0.0
2014-Aug-20 09:32N 51°15' E 004°22'0 0.0
2014-Aug-20 08:32N 51°15' E 004°22'0 0.0
2014-Aug-20 07:31N 51°15' E 004°22'0 0.0
2014-Aug-20 06:31N 51°15' E 004°22'0 0.0
2014-Aug-20 05:31N 51°15' E 004°22'0 0.0
2014-Aug-20 04:31N 51°15' E 004°22'0 0.0
2014-Aug-20 03:31N 51°15' E 004°22'0 0.0
2014-Aug-20 02:31N 51°15' E 004°22'0 0.0
2014-Aug-20 01:31N 51°15' E 004°22'0 0.0
2014-Aug-20 00:31N 51°15' E 004°22'0 0.0
2014-Aug-19 23:31N 51°15' E 004°22'0 0.0
2014-Aug-19 22:31N 51°15' E 004°22'0 0.0
2014-Aug-19 21:31N 51°15' E 004°22'0 0.0
2014-Aug-19 20:31N 51°15' E 004°22'0 0.0
2014-Aug-19 19:31N 51°15' E 004°22'0 0.0
2014-Aug-19 18:31N 51°15' E 004°22'0 0.0
2014-Aug-19 17:31N 51°15' E 004°22'0 0.0
2014-Aug-19 16:31N 51°15' E 004°22'0 0.0
2014-Aug-19 15:31N 51°15' E 004°22'0 0.0
2014-Aug-19 14:31N 51°15' E 004°22'0 0.0
2014-Aug-19 13:31N 51°15' E 004°22'0 0.0
2014-Aug-19 12:33N 51°15' E 004°22'5 5.1
2014-Aug-19 11:33N 51°20' E 004°18'1 1.4
2014-Aug-19 10:33N 51°21' E 004°17'2 2.1
2014-Aug-19 09:33N 51°21' E 004°14'5 5.1
2014-Aug-19 08:33N 51°22' E 004°06'6 5.7
2014-Aug-19 07:33N 51°24' E 003°57'9 9.2
2014-Aug-19 06:33N 51°24' E 003°43'9 8.6
2014-Aug-19 05:33N 51°28' E 003°31'1110.7
2014-Aug-19 04:33N 51°37' E 003°21'1110.6
2014-Aug-19 03:33N 51°47' E 003°15'8911.1
2014-Aug-18 19:33N 53°07' E 004°19'1111.2
2014-Aug-18 18:33N 53°17' E 004°29'1312.1
2014-Aug-18 17:28N 53°29' E 004°35'1111.9
2014-Aug-18 16:33N 53°40' E 004°41'1211.6
2014-Aug-18 15:32N 53°51' E 004°46'1111.3
2014-Aug-18 14:33N 54°02' E 004°51'1110.5
2014-Aug-18 13:32N 54°12' E 004°59'1010.5
2014-Aug-18 12:33N 54°20' E 005°09'1010.3
2014-Aug-18 11:33N 54°29' E 005°18'1110.5
2014-Aug-18 10:33N 54°38' E 005°26'1310.9
2014-Aug-18 09:22N 54°49' E 005°37'23510.2
2014-Aug-17 10:28N 57°45' E 010°17'1010.7
2014-Aug-17 09:33N 57°48' E 010°34'1111.1
2014-Aug-17 08:33N 57°46' E 010°55'1211.9
2014-Aug-17 07:33N 57°37' E 011°10'1212.5
2014-Aug-17 06:33N 57°28' E 011°26'1713.2
2014-Aug-17 05:18N 57°13' E 011°36'1013.1
2014-Aug-17 04:33N 57°03' E 011°42'1313.0
2014-Aug-17 03:33N 56°51' E 011°50'1312.5
2014-Aug-17 02:33N 56°39' E 011°56'1212.0
2014-Aug-17 01:33N 56°28' E 012°03'1212.2
2014-Aug-17 00:33N 56°18' E 012°17'1212.4
2014-Aug-16 23:33N 56°08' E 012°31'1111.0
2014-Aug-16 22:33N 55°59' E 012°42'1111.5
2014-Aug-16 21:33N 55°48' E 012°42'1111.1
2014-Aug-16 20:33N 55°37' E 012°42'10 9.8
2014-Aug-16 19:33N 55°27' E 012°42'1010.1
2014-Aug-16 18:33N 55°17' E 012°47'1212.0
2014-Aug-16 17:33N 55°16' E 013°07'1212.2
2014-Aug-16 16:33N 55°15' E 013°29'3511.3
2014-Aug-16 13:28N 55°23' E 014°29'1112.4
2014-Aug-16 12:32N 55°30' E 014°45'3012.8
2014-Aug-16 10:12N 55°45' E 015°30'812.9
2014-Aug-16 09:33N 55°49' E 015°43'1312.5
2014-Aug-16 08:33N 55°55' E 016°02'1212.5
2014-Aug-16 07:33N 56°01' E 016°22'3712.1
2014-Aug-16 04:31N 56°33' E 016°56'2612.9
2014-Aug-16 02:29N 56°58' E 017°10'1213.0
2014-Aug-16 01:33N 57°09' E 017°15'1313.1
2014-Aug-16 00:33N 57°22' E 017°21'1313.1
2014-Aug-15 23:33N 57°35' E 017°26'1 0.0
2014-Aug-14 12:33N 57°34' E 017°25'1414.3
2014-Aug-14 11:33N 57°20' E 017°20'1414.2
2014-Aug-14 10:33N 57°06' E 017°14'2814.1
2014-Aug-14 08:33N 56°38' E 017°03'4412.8
2014-Aug-14 05:05N 55°58' E 016°29'713.9
2014-Aug-14 04:33N 55°55' E 016°17'1414.1
2014-Aug-14 03:32N 55°48' E 015°55'1413.9
2014-Aug-14 02:33N 55°41' E 015°34'1414.1
2014-Aug-14 01:33N 55°34' E 015°12'1414.4
2014-Aug-14 00:33N 55°28' E 014°49'1414.3
2014-Aug-13 23:33N 55°18' E 014°30'1413.7
2014-Aug-13 22:33N 55°10' E 014°10'1513.9
2014-Aug-13 21:30N 55°10' E 013°45'1813.8
2014-Aug-13 20:12N 55°10' E 013°14'913.7
2014-Aug-13 19:33N 55°13' E 012°59'1313.0
2014-Aug-13 18:33N 55°19' E 012°38'1312.8
2014-Aug-13 17:33N 55°32' E 012°42'1312.7
2014-Aug-13 16:33N 55°44' E 012°41'1313.3
2014-Aug-13 15:33N 55°58' E 012°38'1212.5
2014-Aug-13 14:34N 56°09' E 012°27'1414.2
2014-Aug-13 13:34N 56°17' E 012°06'1513.4
2014-Aug-13 12:28N 56°31' E 011°59'1313.8
2014-Aug-13 11:33N 56°43' E 011°54'1413.6
2014-Aug-13 10:33N 56°56' E 011°46'1413.7
2014-Aug-13 09:31N 57°09' E 011°37'1414.3
2014-Aug-13 08:33N 57°22' E 011°28'1413.8
2014-Aug-13 07:33N 57°33' E 011°13'1414.4
2014-Aug-13 06:33N 57°43' E 010°53'1313.2
2014-Aug-13 05:33N 57°45' E 010°29'1414.4
2014-Aug-13 04:33N 57°41' E 010°03'16314.2
2014-Aug-12 17:07N 55°40' E 006°44'814.5
2014-Aug-12 16:33N 55°33' E 006°37'10714.3
2014-Aug-12 09:04N 53°60' E 005°06'713.7
2014-Aug-12 08:33N 53°53' E 005°05'1514.5
2014-Aug-12 07:33N 53°40' E 004°54'1414.5
2014-Aug-12 06:33N 53°27' E 004°45'2115.4
2014-Aug-12 05:12N 53°08' E 004°29'1015.3
2014-Aug-12 04:33N 52°60' E 004°20'1515.1
2014-Aug-12 03:33N 52°46' E 004°08'1515.4
2014-Aug-12 02:33N 52°36' E 003°50'5613.1
2014-Aug-11 22:17N 51°43' E 003°17'7 9.3
2014-Aug-11 21:32N 51°37' E 003°22'1111.6
2014-Aug-11 20:33N 51°27' E 003°31'1211.5
2014-Aug-11 19:34N 51°21' E 003°47'1110.8
2014-Aug-11 18:33N 51°22' E 004°04'1111.2
2014-Aug-11 17:34N 51°17' E 004°20'0 0.3
2014-Aug-11 16:33N 51°17' E 004°20'1 0.9
2014-Aug-11 15:32N 51°16' E 004°21'0 0.0
2014-Aug-11 14:32N 51°16' E 004°21'0 0.0
2014-Aug-11 13:32N 51°16' E 004°21'0 0.0
2014-Aug-11 12:32N 51°16' E 004°21'0 0.0
2014-Aug-11 11:32N 51°16' E 004°21'0 0.0
2014-Aug-11 10:32N 51°16' E 004°21'0 0.0
2014-Aug-11 09:32N 51°16' E 004°21'0 0.0
2014-Aug-11 08:32N 51°16' E 004°21'0 0.0
2014-Aug-11 07:31N 51°16' E 004°21'  

Dump ship's entire track history